Ramon, New Mexico
Current Conditions -  °F | °C
As of 6:56 PM on Sunday 25 Jan 2015 (Local Time) from K4MR Reporting Station
Clear Clear  
Wind Chill: 31°   Ceiling: Unl
Heat Index: 35°   Visibility: 10mi
Dew Point: 29°   Wind: 5mph
Humidity: 79%   Direction: 200°SSW
Pressure: 30.27"   Gusts: NA
Location:  34.3529°N, 104.601°W
Report Text: K4MR 260156Z AUTO 20004KT 10SM CLR 02/M02 A3027 RMK AO2 SLP264 T00151017
Loading
Personal Weather Stations






























Interactive Weather Map New forecast layout! Learn more

10-Day Weather Forecast

Advertisements
Track Severe Weather on mobile